Time;durP1;ratioP1;P1;durP2;ratioP2;P2;SDS_P1;SDS_P2;PMS_P1;PMS_P2;Temp;Humidity;BMP_temperature;BMP_pressure;BME280_temperature;BME280_humidity;BME280_pressure;Samples;Min_cycle;Max_cycle;Signal;HPM_P1;HPM_P2
2024/04/03 00:02:00;;;;;;;2.93;1.47;;;10.60;99.90;;;;;;4211585;28;20181;-57
2024/04/03 00:04:00;;;;;;;3.23;1.70;;;10.60;99.90;;;;;;4210654;28;20232;-57
2024/04/03 00:06:01;;;;;;;2.10;1.47;;;10.60;99.90;;;;;;4211781;28;20184;-57
2024/04/03 00:08:02;;;;;;;3.97;2.00;;;10.60;99.90;;;;;;4205097;28;20195;-57
2024/04/03 00:10:03;;;;;;;4.00;1.50;;;10.50;99.90;;;;;;4207896;28;20300;-57
2024/04/03 00:12:03;;;;;;;2.23;1.50;;;10.50;99.90;;;;;;4208385;28;20177;-57
2024/04/03 00:14:04;;;;;;;2.83;1.20;;;10.60;99.90;;;;;;4212226;28;20199;-57
2024/04/03 00:16:05;;;;;;;2.50;1.40;;;10.60;99.90;;;;;;4204401;28;20271;-57
2024/04/03 00:18:05;;;;;;;2.77;1.40;;;10.60;99.90;;;;;;4212443;28;20181;-57
2024/04/03 00:20:06;;;;;;;2.47;1.50;;;10.60;99.90;;;;;;4212200;28;20185;-57
2024/04/03 00:22:07;;;;;;;2.53;1.20;;;10.60;99.90;;;;;;4211366;28;20177;-57
2024/04/03 00:24:09;;;;;;;3.47;1.20;;;10.50;99.90;;;;;;4212404;28;20206;-56
2024/04/03 00:26:09;;;;;;;2.63;1.40;;;10.50;99.90;;;;;;4211778;28;20627;-57
2024/04/03 00:28:10;;;;;;;3.17;1.63;;;10.50;99.90;;;;;;4212033;28;20168;-57
2024/04/03 00:30:10;;;;;;;2.10;1.37;;;10.50;99.90;;;;;;4211978;28;20191;-57
2024/04/03 00:32:11;;;;;;;3.90;1.70;;;10.50;99.90;;;;;;4211429;28;20180;-56
2024/04/03 00:34:11;;;;;;;3.47;1.60;;;10.50;99.90;;;;;;4212135;28;20191;-57
2024/04/03 00:36:12;;;;;;;3.53;1.50;;;10.50;99.90;;;;;;4210504;28;20741;-57
2024/04/03 00:38:13;;;;;;;3.50;1.43;;;10.50;99.90;;;;;;4206443;28;20192;-57
2024/04/03 00:40:14;;;;;;;2.60;1.53;;;10.40;99.90;;;;;;4209417;28;20642;-57
2024/04/03 00:42:15;;;;;;;3.47;1.30;;;10.40;99.90;;;;;;4205261;28;20275;-57
2024/04/03 00:44:15;;;;;;;3.13;1.40;;;10.40;99.90;;;;;;4211733;28;20184;-57
2024/04/03 00:46:16;;;;;;;3.23;1.53;;;10.30;99.90;;;;;;4211552;28;20175;-57
2024/04/03 00:48:17;;;;;;;2.53;1.27;;;10.30;99.90;;;;;;4212049;28;20187;-57
2024/04/03 00:50:18;;;;;;;3.50;1.40;;;10.30;99.90;;;;;;4211683;28;20195;-57
2024/04/03 00:52:19;;;;;;;2.50;1.40;;;10.20;99.90;;;;;;4211292;28;20184;-57
2024/04/03 00:54:21;;;;;;;2.83;1.10;;;10.30;99.90;;;;;;4211928;28;20177;-57
2024/04/03 00:56:24;;;;;;;2.33;1.17;;;10.30;99.90;;;;;;4198466;28;20187;-57
2024/04/03 00:58:25;;;;;;;3.70;1.47;;;10.20;99.90;;;;;;4211955;28;20181;-57
2024/04/03 01:00:25;;;;;;;1.20;1.00;;;10.20;99.90;;;;;;4211557;28;20345;-57
2024/04/03 01:02:26;;;;;;;6.20;1.43;;;10.20;99.90;;;;;;4210860;28;20564;-57
2024/04/03 01:04:27;;;;;;;4.40;1.50;;;10.20;99.90;;;;;;4211824;28;20177;-56
2024/04/03 01:06:27;;;;;;;2.07;1.30;;;10.20;99.90;;;;;;4204729;28;20173;-57
2024/04/03 01:08:29;;;;;;;4.30;1.40;;;10.20;99.90;;;;;;4209050;28;20322;-57
2024/04/03 01:10:29;;;;;;;2.03;1.33;;;10.20;99.90;;;;;;4205455;28;20185;-56
2024/04/03 01:12:32;;;;;;;3.20;1.40;;;10.10;99.90;;;;;;4211141;28;20181;-57
2024/04/03 01:14:33;;;;;;;2.33;1.30;;;10.20;99.90;;;;;;4211611;28;20180;-56
2024/04/03 01:16:34;;;;;;;2.53;1.17;;;10.10;99.90;;;;;;4213689;28;20244;-56
2024/04/03 01:18:35;;;;;;;2.37;1.30;;;10.10;99.90;;;;;;4215303;28;20177;-56
2024/04/03 01:20:36;;;;;;;1.73;1.00;;;10.10;99.90;;;;;;4214652;28;20555;-57
2024/04/03 01:22:36;;;;;;;3.47;1.13;;;10.10;99.90;;;;;;4214115;28;20185;-56
2024/04/03 01:24:37;;;;;;;2.90;1.40;;;10.10;99.90;;;;;;4214913;28;20176;-57
2024/04/03 01:26:38;;;;;;;2.93;1.60;;;10.10;99.90;;;;;;4215184;28;20253;-57
2024/04/03 01:28:38;;;;;;;2.20;1.30;;;10.10;99.90;;;;;;4214511;28;20269;-57
2024/04/03 01:30:39;;;;;;;1.53;1.20;;;10.10;99.90;;;;;;4214565;28;20208;-56
2024/04/03 01:32:41;;;;;;;3.97;1.33;;;10.20;99.90;;;;;;4214625;28;20587;-56
2024/04/03 01:34:42;;;;;;;1.70;1.13;;;10.10;99.90;;;;;;4214688;28;20173;-57
2024/04/03 01:36:42;;;;;;;3.13;1.30;;;10.10;99.90;;;;;;4207514;28;20200;-57
2024/04/03 01:38:43;;;;;;;2.43;1.40;;;10.10;99.90;;;;;;4214946;28;20657;-56
2024/04/03 01:40:44;;;;;;;3.07;1.27;;;10.10;99.90;;;;;;4213910;28;20196;-57
2024/04/03 01:42:45;;;;;;;4.53;1.50;;;10.10;99.90;;;;;;4214936;28;20629;-56
2024/04/03 01:44:45;;;;;;;1.63;1.17;;;10.10;99.90;;;;;;4214404;28;20677;-57
2024/04/03 01:46:46;;;;;;;2.93;1.33;;;10.10;99.90;;;;;;4214747;28;20219;-57
2024/04/03 01:48:46;;;;;;;2.30;1.33;;;10.10;99.90;;;;;;4214327;28;20212;-57
2024/04/03 01:50:47;;;;;;;4.10;1.50;;;10.10;99.90;;;;;;4213627;28;20215;-56
2024/04/03 01:52:48;;;;;;;1.50;1.03;;;10.00;99.90;;;;;;4214535;28;20180;-57
2024/04/03 01:54:48;;;;;;;3.07;1.20;;;10.00;99.90;;;;;;4214307;28;20184;-57
2024/04/03 01:56:49;;;;;;;2.07;1.00;;;10.10;99.90;;;;;;4214532;28;20176;-56
2024/04/03 01:58:49;;;;;;;2.77;1.10;;;10.00;99.90;;;;;;4214435;28;20184;-57
2024/04/03 02:00:51;;;;;;;2.03;1.23;;;10.00;99.90;;;;;;4212153;28;20180;-57
2024/04/03 02:02:52;;;;;;;2.03;1.20;;;10.00;99.90;;;;;;4214488;28;20191;-57
2024/04/03 02:04:52;;;;;;;1.97;1.07;;;10.00;99.90;;;;;;4214047;28;20188;-56
2024/04/03 02:06:53;;;;;;;2.53;1.20;;;10.00;99.90;;;;;;4205719;28;20185;-57
2024/04/03 02:08:53;;;;;;;2.17;1.27;;;10.00;99.90;;;;;;4211661;28;20208;-57
2024/04/03 02:10:54;;;;;;;2.47;1.30;;;9.90;99.90;;;;;;4213329;28;20656;-57
2024/04/03 02:12:54;;;;;;;3.20;1.37;;;10.00;99.90;;;;;;4214100;28;20229;-57
2024/04/03 02:14:55;;;;;;;3.20;1.50;;;10.00;99.90;;;;;;4208692;28;20191;-57
2024/04/03 02:16:56;;;;;;;2.10;1.23;;;10.00;99.90;;;;;;4214203;28;20231;-57
2024/04/03 02:18:59;;;;;;;4.50;1.50;;;10.00;99.90;;;;;;4214258;28;20254;-57
2024/04/03 02:21:00;;;;;;;2.60;1.40;;;9.90;99.90;;;;;;4213276;28;20184;-57
2024/04/03 02:23:00;;;;;;;3.83;1.70;;;9.90;99.90;;;;;;4214204;28;20278;-57
2024/04/03 02:25:01;;;;;;;2.93;1.53;;;9.90;99.90;;;;;;4213816;28;20193;-57
2024/04/03 02:27:03;;;;;;;2.93;1.50;;;9.80;99.90;;;;;;4212730;28;20224;-57
2024/04/03 02:29:03;;;;;;;1.77;1.20;;;9.90;99.90;;;;;;4214021;28;20208;-57
2024/04/03 02:31:04;;;;;;;2.23;1.20;;;9.80;99.90;;;;;;4213153;28;20204;-57
2024/04/03 02:33:04;;;;;;;2.20;1.10;;;9.80;99.90;;;;;;4213790;28;20769;-57
2024/04/03 02:35:05;;;;;;;4.53;1.60;;;9.80;99.90;;;;;;4213493;28;20177;-56
2024/04/03 02:37:06;;;;;;;3.83;1.50;;;9.80;99.90;;;;;;4206736;28;20677;-57
2024/04/03 02:39:07;;;;;;;3.67;1.70;;;9.80;99.90;;;;;;4213834;28;20191;-57
2024/04/03 02:41:07;;;;;;;3.30;1.57;;;9.80;99.90;;;;;;4208881;28;20217;-57
2024/04/03 02:43:08;;;;;;;3.30;1.43;;;9.80;99.90;;;;;;4200654;28;20182;-57
2024/04/03 02:45:08;;;;;;;3.10;1.50;;;9.80;99.90;;;;;;4213687;28;20180;-57
2024/04/03 02:47:09;;;;;;;3.93;1.50;;;9.80;99.90;;;;;;4213739;28;20181;-57
2024/04/03 02:49:10;;;;;;;2.13;1.47;;;9.80;99.90;;;;;;4213782;28;20268;-57
2024/04/03 02:51:10;;;;;;;4.07;1.80;;;9.80;99.90;;;;;;4212663;28;20264;-57
2024/04/03 02:53:11;;;;;;;2.90;1.40;;;9.80;99.90;;;;;;4213514;28;20176;-57
2024/04/03 02:55:11;;;;;;;2.93;1.30;;;9.80;99.90;;;;;;4208577;28;20275;-57
2024/04/03 02:57:12;;;;;;;3.20;1.47;;;9.80;99.90;;;;;;4213654;28;20181;-57
2024/04/03 02:59:12;;;;;;;2.57;1.57;;;9.80;99.90;;;;;;4213491;28;20637;-57
2024/04/03 03:01:13;;;;;;;3.23;1.60;;;9.70;99.90;;;;;;4212430;28;20185;-57
2024/04/03 03:03:14;;;;;;;3.93;1.83;;;9.70;99.90;;;;;;4213415;28;20185;-57
2024/04/03 03:05:14;;;;;;;3.07;1.97;;;9.70;99.90;;;;;;4213211;28;20647;-57
2024/04/03 03:07:15;;;;;;;4.67;1.70;;;9.70;99.90;;;;;;4212571;28;20199;-56
2024/04/03 03:09:20;;;;;;;4.17;1.93;;;9.70;99.90;;;;;;4213150;28;20200;-57
2024/04/03 03:11:21;;;;;;;5.17;1.57;;;9.70;99.90;;;;;;4204497;28;20592;-57
2024/04/03 03:13:22;;;;;;;2.47;1.50;;;9.70;99.90;;;;;;4213126;28;20181;-57
2024/04/03 03:15:22;;;;;;;2.43;1.30;;;9.70;99.90;;;;;;4212972;28;20204;-57
2024/04/03 03:17:23;;;;;;;3.03;1.50;;;9.70;99.90;;;;;;4213175;28;20531;-57
2024/04/03 03:19:24;;;;;;;2.27;1.43;;;9.70;99.90;;;;;;4213118;28;20188;-57
2024/04/03 03:21:24;;;;;;;2.60;1.37;;;9.70;99.90;;;;;;4212321;28;20255;-57
2024/04/03 03:23:25;;;;;;;3.00;1.60;;;9.80;99.90;;;;;;4213055;28;20180;-57
2024/04/03 03:25:25;;;;;;;3.20;1.47;;;9.80;99.90;;;;;;4212736;28;20592;-57
2024/04/03 03:27:26;;;;;;;3.37;1.70;;;9.80;99.90;;;;;;4212872;28;20205;-57
2024/04/03 03:29:26;;;;;;;2.90;1.60;;;9.80;99.90;;;;;;4213313;28;20231;-57
2024/04/03 03:31:28;;;;;;;2.40;1.40;;;9.80;99.90;;;;;;4212444;28;20694;-57
2024/04/03 03:33:29;;;;;;;2.23;1.40;;;9.80;99.90;;;;;;4213022;28;20764;-57
2024/04/03 03:35:30;;;;;;;2.17;1.30;;;9.80;99.90;;;;;;4212074;28;20172;-57
2024/04/03 03:37:30;;;;;;;3.27;1.50;;;9.80;99.90;;;;;;4206060;28;20199;-57
2024/04/03 03:39:31;;;;;;;2.87;1.53;;;9.80;99.90;;;;;;4212710;28;20185;-57
2024/04/03 03:41:31;;;;;;;3.60;1.30;;;9.80;99.90;;;;;;4205165;28;20305;-57
2024/04/03 03:43:32;;;;;;;3.20;1.60;;;9.80;99.90;;;;;;4211469;28;20191;-57
2024/04/03 03:45:43;;;;;;;3.27;1.70;;;9.80;99.90;;;;;;4212475;28;20180;-57
2024/04/03 03:47:44;;;;;;;2.70;1.27;;;9.80;99.90;;;;;;4212769;28;20539;-57
2024/04/03 03:52:49;;;;;;;3.67;1.47;;;9.70;99.90;;;;;;4211976;28;20645;-57
2024/04/03 03:54:24;;;;;;;2.10;1.40;;;9.70;99.90;;;;;;4194609;28;20663;-57
2024/04/03 03:56:25;;;;;;;2.77;1.30;;;9.70;99.90;;;;;;4210796;28;20179;-57
2024/04/03 03:58:26;;;;;;;4.20;1.40;;;9.60;99.90;;;;;;4212661;28;20200;-57
2024/04/03 04:00:26;;;;;;;4.37;1.87;;;9.60;99.90;;;;;;4211583;28;20231;-57
2024/04/03 04:02:27;;;;;;;3.43;1.60;;;9.60;99.90;;;;;;4212629;28;20180;-57
2024/04/03 04:04:27;;;;;;;2.63;1.43;;;9.60;99.90;;;;;;4212310;28;20593;-57
2024/04/03 04:06:28;;;;;;;2.83;1.30;;;9.60;99.90;;;;;;4205851;28;20627;-57
2024/04/03 04:08:28;;;;;;;2.00;1.27;;;9.60;99.90;;;;;;4203606;28;20189;-57
2024/04/03 04:10:29;;;;;;;4.73;1.93;;;9.60;99.90;;;;;;4208500;28;20181;-57
2024/04/03 04:12:30;;;;;;;3.50;1.70;;;9.60;99.90;;;;;;4210299;28;20181;-57
2024/04/03 04:14:30;;;;;;;3.53;1.60;;;9.60;99.90;;;;;;4212450;28;20177;-57
2024/04/03 04:16:31;;;;;;;3.20;1.50;;;9.60;99.90;;;;;;4211989;28;20184;-57
2024/04/03 04:18:32;;;;;;;4.50;1.60;;;9.60;99.90;;;;;;4212389;28;20188;-57
2024/04/03 04:20:33;;;;;;;3.13;1.60;;;9.60;99.90;;;;;;4211129;28;20271;-57
2024/04/03 04:22:34;;;;;;;3.07;1.70;;;9.60;99.90;;;;;;4212569;28;20191;-57
2024/04/03 04:24:36;;;;;;;2.73;1.30;;;9.60;99.90;;;;;;4212357;28;20314;-57
2024/04/03 04:26:36;;;;;;;2.13;1.50;;;9.60;99.90;;;;;;4205571;28;20186;-57
2024/04/03 04:28:37;;;;;;;3.23;1.60;;;9.60;99.90;;;;;;4211682;28;20212;-57
2024/04/03 04:30:40;;;;;;;2.60;1.50;;;9.60;99.90;;;;;;4211254;28;20207;-57
2024/04/03 04:32:40;;;;;;;2.13;1.33;;;9.60;99.90;;;;;;4211993;28;20203;-57
2024/04/03 04:34:41;;;;;;;2.90;1.40;;;9.60;99.90;;;;;;4212023;28;20212;-57
2024/04/03 04:36:42;;;;;;;1.83;1.20;;;9.60;99.90;;;;;;4209159;28;20180;-57
2024/04/03 04:38:42;;;;;;;3.67;1.40;;;9.60;99.90;;;;;;4212082;28;20196;-56
2024/04/03 04:40:59;;;;;;;2.63;1.50;;;9.60;99.90;;;;;;4210403;28;20245;-57
2024/04/03 04:42:59;;;;;;;2.60;1.10;;;9.60;99.90;;;;;;4209065;28;20646;-57
2024/04/03 04:45:00;;;;;;;2.87;1.30;;;9.60;99.90;;;;;;4212398;28;20271;-57
2024/04/03 04:47:00;;;;;;;1.97;1.10;;;9.60;99.90;;;;;;4212075;28;20528;-57
2024/04/03 04:49:01;;;;;;;3.03;1.53;;;9.70;99.90;;;;;;4212125;28;20200;-57
2024/04/03 04:51:02;;;;;;;2.80;1.10;;;9.70;99.90;;;;;;4213335;28;20238;-57
2024/04/03 04:53:03;;;;;;;2.07;1.10;;;9.70;99.90;;;;;;4215773;28;20618;-57
2024/04/03 04:55:04;;;;;;;2.23;1.20;;;9.60;99.90;;;;;;4215293;28;20230;-57
2024/04/03 04:57:09;;;;;;;1.77;1.20;;;9.70;99.90;;;;;;4215346;28;20223;-57
2024/04/03 04:59:11;;;;;;;2.23;1.10;;;9.70;99.90;;;;;;4215377;28;20301;-57
2024/04/03 05:01:12;;;;;;;1.43;0.93;;;9.70;99.90;;;;;;4214557;28;20192;-57
2024/04/03 05:03:12;;;;;;;2.83;1.20;;;9.70;99.90;;;;;;4215402;28;20218;-57
2024/04/03 05:05:13;;;;;;;2.67;1.07;;;9.70;99.90;;;;;;4214242;28;20177;-56
2024/04/03 05:07:13;;;;;;;2.00;0.90;;;9.70;99.90;;;;;;4213214;28;20579;-57
2024/04/03 05:09:14;;;;;;;1.40;1.00;;;9.70;99.90;;;;;;4205791;28;20257;-57
2024/04/03 05:11:14;;;;;;;1.57;1.00;;;9.70;99.90;;;;;;4214291;28;20720;-57
2024/04/03 05:13:16;;;;;;;1.10;1.00;;;9.70;99.90;;;;;;4215091;28;20188;-57
2024/04/03 05:15:17;;;;;;;1.20;0.73;;;9.70;99.90;;;;;;4214725;28;20262;-57
2024/04/03 05:17:18;;;;;;;1.57;1.23;;;9.70;99.90;;;;;;4215291;28;20177;-57
2024/04/03 05:19:18;;;;;;;1.83;1.10;;;9.70;99.90;;;;;;4211227;28;20173;-57
2024/04/03 05:21:22;;;;;;;2.13;0.93;;;9.70;99.90;;;;;;4207601;28;20189;-57
2024/04/03 05:23:23;;;;;;;1.53;0.93;;;9.70;99.90;;;;;;4213706;28;20187;-57
2024/04/03 05:25:23;;;;;;;2.97;1.10;;;9.70;99.90;;;;;;4214886;28;20678;-57
2024/04/03 05:27:24;;;;;;;1.73;0.90;;;9.70;99.90;;;;;;4215240;28;20181;-57
2024/04/03 05:29:24;;;;;;;2.53;1.00;;;9.70;99.90;;;;;;4214877;28;20249;-57
2024/04/03 05:31:25;;;;;;;3.07;1.30;;;9.70;99.90;;;;;;4214035;28;20242;-57
2024/04/03 05:33:25;;;;;;;3.33;1.10;;;9.70;99.90;;;;;;4214722;28;20176;-57
2024/04/03 05:35:26;;;;;;;2.83;1.07;;;9.70;99.90;;;;;;4214297;28;20172;-57
2024/04/03 05:37:27;;;;;;;2.13;1.00;;;9.70;99.90;;;;;;4214210;28;20177;-57
2024/04/03 05:39:29;;;;;;;2.27;1.10;;;9.70;99.90;;;;;;4214891;28;20185;-57
2024/04/03 05:41:29;;;;;;;3.43;1.30;;;9.80;99.90;;;;;;4213484;28;20180;-57
2024/04/03 05:43:30;;;;;;;3.03;1.30;;;9.70;99.90;;;;;;4214600;28;20207;-57
2024/04/03 05:45:31;;;;;;;2.50;1.10;;;9.80;99.90;;;;;;4206975;28;20184;-57
2024/04/03 05:47:32;;;;;;;1.80;1.00;;;9.80;99.90;;;;;;4214790;28;20195;-57
2024/04/03 05:49:33;;;;;;;1.70;0.97;;;9.80;99.90;;;;;;4214629;28;20201;-57
2024/04/03 05:51:33;;;;;;;2.17;1.10;;;9.80;99.90;;;;;;4213694;28;20528;-57
2024/04/03 05:53:35;;;;;;;2.00;1.00;;;9.80;99.90;;;;;;4214599;28;20173;-57
2024/04/03 05:55:35;;;;;;;2.77;1.10;;;9.80;99.90;;;;;;4214380;28;20184;-57
2024/04/03 05:57:36;;;;;;;1.13;0.80;;;9.90;99.90;;;;;;4214453;28;20188;-56
2024/04/03 05:59:37;;;;;;;2.73;1.00;;;9.80;99.90;;;;;;4214316;28;20193;-57
2024/04/03 06:01:37;;;;;;;1.40;0.80;;;9.80;99.90;;;;;;4204737;28;20196;-57
2024/04/03 06:03:38;;;;;;;1.70;1.20;;;9.90;99.90;;;;;;4214238;28;20184;-57
2024/04/03 06:05:39;;;;;;;1.60;1.00;;;9.90;99.90;;;;;;4214256;28;20271;-57
2024/04/03 06:07:39;;;;;;;1.70;1.00;;;9.90;99.90;;;;;;4202889;28;20180;-56
2024/04/03 06:09:41;;;;;;;3.37;1.00;;;9.90;99.90;;;;;;4214466;28;20240;-57
2024/04/03 06:11:42;;;;;;;1.57;0.90;;;9.90;99.90;;;;;;4213540;28;20652;-57
2024/04/03 06:13:43;;;;;;;2.07;0.90;;;9.90;99.90;;;;;;4214201;28;20181;-57
2024/04/03 06:15:44;;;;;;;3.20;1.30;;;9.90;99.90;;;;;;4208951;28;20193;-57
2024/04/03 06:17:44;;;;;;;1.40;1.07;;;9.90;99.90;;;;;;4214222;28;20233;-57
2024/04/03 06:19:45;;;;;;;2.67;1.20;;;9.90;99.90;;;;;;4214204;28;20563;-57
2024/04/03 06:21:45;;;;;;;3.40;1.23;;;10.00;99.90;;;;;;4213371;28;20220;-57
2024/04/03 06:23:46;;;;;;;2.27;1.20;;;10.00;99.90;;;;;;4213241;28;20497;-56
2024/04/03 06:25:46;;;;;;;2.97;1.27;;;10.00;99.90;;;;;;3859155;28;10000450;-57
2024/04/03 06:27:47;;;;;;;2.40;1.10;;;10.00;99.90;;;;;;4206126;28;20216;-57
2024/04/03 06:29:48;;;;;;;2.80;1.27;;;10.10;99.90;;;;;;4210935;28;20208;-57
2024/04/03 06:31:49;;;;;;;1.90;1.10;;;10.10;99.90;;;;;;4210294;28;20177;-57
2024/04/03 06:33:51;;;;;;;2.27;1.07;;;10.10;99.90;;;;;;4210968;28;20631;-57
2024/04/03 06:35:52;;;;;;;1.73;1.20;;;10.10;99.90;;;;;;4206484;28;20179;-57
2024/04/03 06:37:52;;;;;;;1.50;1.10;;;10.10;99.90;;;;;;3851071;27;10000031;-57
2024/04/03 06:39:53;;;;;;;2.20;1.27;;;10.10;99.90;;;;;;4209385;28;20401;-57
2024/04/03 06:41:54;;;;;;;2.63;1.20;;;10.20;99.90;;;;;;4206344;28;20189;-57
2024/04/03 06:43:54;;;;;;;1.97;1.00;;;10.20;99.90;;;;;;4213807;28;20181;-57
2024/04/03 06:45:56;;;;;;;1.57;1.10;;;10.20;99.90;;;;;;4213571;28;20636;-57
2024/04/03 06:47:56;;;;;;;2.37;1.10;;;10.30;99.90;;;;;;4213121;28;20181;-57
2024/04/03 06:49:57;;;;;;;2.70;1.43;;;10.30;99.90;;;;;;4212072;28;20208;-57
2024/04/03 06:51:58;;;;;;;2.13;1.50;;;10.30;99.90;;;;;;4213007;28;20242;-57
2024/04/03 06:53:59;;;;;;;4.57;1.83;;;10.30;99.90;;;;;;4213608;28;20204;-57
2024/04/03 06:56:00;;;;;;;3.30;1.40;;;10.40;99.90;;;;;;4213307;28;20176;-57
2024/04/03 06:58:01;;;;;;;2.70;1.20;;;10.40;99.90;;;;;;4213296;28;20177;-57
2024/04/03 07:00:02;;;;;;;1.40;1.20;;;10.50;99.90;;;;;;4211465;28;20208;-57
2024/04/03 07:02:03;;;;;;;1.57;1.10;;;10.40;99.90;;;;;;4206362;28;20188;-57
2024/04/03 07:04:04;;;;;;;2.33;1.67;;;10.50;99.90;;;;;;4213410;28;20196;-57
2024/04/03 07:06:06;;;;;;;3.57;1.37;;;10.40;99.90;;;;;;4213436;28;20650;-57
2024/04/03 07:08:06;;;;;;;2.07;1.10;;;10.50;99.90;;;;;;4211011;28;20665;-57
2024/04/03 07:10:09;;;;;;;1.97;0.97;;;10.50;99.90;;;;;;4203703;28;20204;-57
2024/04/03 07:12:10;;;;;;;3.50;1.00;;;10.50;99.90;;;;;;4210359;28;20630;-57
2024/04/03 07:14:10;;;;;;;1.70;1.10;;;10.50;99.90;;;;;;4205301;28;20184;-57
2024/04/03 07:16:11;;;;;;;2.00;1.00;;;10.50;99.90;;;;;;4205314;28;20187;-57
2024/04/03 07:18:11;;;;;;;2.07;1.20;;;10.60;99.90;;;;;;4211927;28;20181;-57
2024/04/03 07:20:12;;;;;;;2.77;1.17;;;10.60;99.90;;;;;;4210406;28;20189;-57
2024/04/03 07:22:12;;;;;;;2.20;1.10;;;10.60;99.90;;;;;;4200114;28;20181;-57
2024/04/03 07:24:13;;;;;;;2.53;1.10;;;10.60;99.90;;;;;;4212811;28;20196;-57
2024/04/03 07:26:14;;;;;;;1.57;1.00;;;10.60;99.90;;;;;;4212517;28;20185;-57
2024/04/03 07:28:14;;;;;;;2.20;1.17;;;10.60;99.90;;;;;;4212993;28;20191;-57
2024/04/03 07:30:15;;;;;;;0.97;0.80;;;10.70;99.90;;;;;;4211989;28;20678;-57
2024/04/03 07:32:15;;;;;;;1.57;1.10;;;10.70;99.90;;;;;;4213252;28;20177;-57
2024/04/03 07:34:16;;;;;;;2.83;1.20;;;10.70;99.90;;;;;;4209697;28;20173;-57
2024/04/03 07:36:21;;;;;;;1.60;1.00;;;10.70;99.90;;;;;;4207712;28;20532;-57
2024/04/03 07:38:22;;;;;;;1.20;0.70;;;10.70;99.90;;;;;;4205115;28;20195;-57
2024/04/03 07:40:23;;;;;;;3.10;0.80;;;10.70;99.90;;;;;;4211704;28;20460;-57
2024/04/03 07:42:24;;;;;;;1.93;0.70;;;10.70;99.90;;;;;;4206457;28;20530;-57
2024/04/03 07:44:25;;;;;;;1.80;0.90;;;10.70;99.90;;;;;;4211344;28;20574;-57
2024/04/03 07:46:27;;;;;;;1.23;0.90;;;10.80;99.90;;;;;;4199064;28;20331;-57
2024/04/03 07:48:27;;;;;;;1.70;0.80;;;10.80;99.90;;;;;;4212397;28;20722;-57
2024/04/03 07:50:28;;;;;;;2.70;0.87;;;10.80;99.90;;;;;;4211566;28;20191;-57
2024/04/03 07:52:29;;;;;;;1.80;0.70;;;10.90;99.90;;;;;;4212435;28;20243;-57
2024/04/03 07:54:29;;;;;;;1.03;0.70;;;10.90;99.90;;;;;;4212433;28;20180;-57
2024/04/03 07:56:30;;;;;;;1.07;0.70;;;10.90;99.90;;;;;;4212481;28;20199;-57
2024/04/03 07:58:31;;;;;;;0.90;0.80;;;10.90;99.90;;;;;;4212557;28;20694;-57
2024/04/03 08:00:31;;;;;;;1.60;0.60;;;11.00;99.90;;;;;;4208622;28;20249;-56
2024/04/03 08:02:37;;;;;;;0.70;0.50;;;11.00;99.90;;;;;;4212366;28;20199;-57
2024/04/03 08:04:38;;;;;;;1.00;0.90;;;11.00;99.90;;;;;;4212382;28;20673;-57
2024/04/03 08:06:40;;;;;;;1.13;0.73;;;11.00;99.90;;;;;;4205779;28;20174;-56
2024/04/03 08:08:41;;;;;;;1.30;0.70;;;11.10;99.90;;;;;;4207674;28;20191;-56
2024/04/03 08:10:41;;;;;;;1.30;0.73;;;11.10;99.90;;;;;;4211228;28;20180;-57
2024/04/03 08:12:42;;;;;;;0.97;0.60;;;11.10;99.90;;;;;;4212332;28;20184;-56
2024/04/03 08:14:43;;;;;;;1.80;0.57;;;11.10;99.90;;;;;;4212426;28;20200;-56
2024/04/03 08:16:43;;;;;;;1.53;0.60;;;11.10;99.90;;;;;;4212146;28;20188;-56
2024/04/03 08:18:44;;;;;;;1.13;0.90;;;11.20;99.90;;;;;;4205760;28;20189;-56
2024/04/03 08:20:45;;;;;;;1.63;0.70;;;11.20;99.90;;;;;;4205032;28;20541;-56
2024/04/03 08:22:45;;;;;;;1.47;0.80;;;11.20;99.90;;;;;;4207558;28;20596;-57
2024/04/03 08:24:49;;;;;;;0.87;0.70;;;11.30;99.90;;;;;;4210380;28;20210;-57
2024/04/03 08:26:50;;;;;;;1.23;0.60;;;11.30;99.90;;;;;;4211817;28;20195;-57
2024/04/03 08:28:50;;;;;;;1.20;0.60;;;11.30;99.90;;;;;;4212115;28;20206;-57
2024/04/03 08:30:51;;;;;;;1.23;0.50;;;11.40;99.90;;;;;;4208808;28;20231;-56
2024/04/03 08:32:51;;;;;;;0.73;0.57;;;11.40;99.90;;;;;;4207504;28;20265;-56
2024/04/03 08:34:52;;;;;;;0.73;0.50;;;11.40;99.90;;;;;;4210064;28;20602;-57
2024/04/03 08:36:53;;;;;;;0.57;0.43;;;11.40;99.90;;;;;;4209522;28;20192;-57
2024/04/03 08:38:53;;;;;;;0.70;0.50;;;11.40;99.90;;;;;;4210619;28;20646;-56
2024/04/03 08:40:57;;;;;;;0.60;0.50;;;11.40;99.90;;;;;;4207469;28;20188;-56
2024/04/03 08:42:57;;;;;;;1.23;0.53;;;11.50;99.90;;;;;;4203444;28;20189;-56
2024/04/03 08:45:01;;;;;;;0.67;0.53;;;11.60;99.90;;;;;;4197549;28;20249;-57
2024/04/03 08:47:02;;;;;;;0.90;0.50;;;11.50;99.90;;;;;;4205744;28;20606;-56
2024/04/03 08:49:07;;;;;;;0.77;0.50;;;11.60;99.90;;;;;;4209710;28;20727;-56
2024/04/03 08:51:07;;;;;;;0.60;0.60;;;11.60;99.90;;;;;;4210799;28;20540;-57
2024/04/03 08:53:09;;;;;;;0.60;0.40;;;11.60;99.90;;;;;;4211602;28;20176;-57
2024/04/03 08:55:14;;;;;;;0.40;0.40;;;11.60;99.90;;;;;;4211452;28;20608;-57
2024/04/03 08:57:15;;;;;;;1.57;0.50;;;11.70;99.90;;;;;;4211966;28;20187;-57
2024/04/03 08:59:16;;;;;;;0.50;0.40;;;11.70;99.90;;;;;;4211552;28;20283;-57
2024/04/03 09:01:17;;;;;;;0.73;0.60;;;11.70;99.90;;;;;;4211018;28;20798;-56
2024/04/03 09:03:21;;;;;;;0.40;0.37;;;11.80;99.90;;;;;;4211474;28;20184;-57
2024/04/03 09:05:22;;;;;;;1.47;0.57;;;11.80;99.90;;;;;;4210087;28;20646;-56
2024/04/03 09:07:23;;;;;;;0.33;0.23;;;11.80;99.90;;;;;;4210052;28;20191;-56
2024/04/03 09:09:28;;;;;;;0.63;0.40;;;11.90;99.90;;;;;;4210297;28;20411;-56
2024/04/03 09:11:28;;;;;;;1.07;0.40;;;11.90;99.90;;;;;;4209257;28;20670;-56
2024/04/03 09:13:29;;;;;;;0.40;0.40;;;12.00;99.90;;;;;;4208882;28;20263;-57
2024/04/03 09:15:29;;;;;;;0.50;0.50;;;12.00;99.90;;;;;;4209940;28;20185;-57
2024/04/03 09:17:30;;;;;;;0.50;0.50;;;12.00;99.90;;;;;;4203572;28;20185;-56
2024/04/03 09:19:32;;;;;;;0.83;0.30;;;12.10;99.90;;;;;;4211007;28;20177;-56
2024/04/03 09:21:33;;;;;;;1.17;0.40;;;12.10;99.90;;;;;;4210701;28;20229;-56
2024/04/03 09:23:33;;;;;;;0.50;0.50;;;12.10;99.90;;;;;;4211256;28;20208;-56
2024/04/03 09:25:35;;;;;;;0.67;0.30;;;12.10;99.90;;;;;;4211451;28;20191;-57
2024/04/03 09:27:36;;;;;;;0.43;0.37;;;12.10;99.90;;;;;;4211639;28;20184;-57
2024/04/03 09:29:37;;;;;;;0.40;0.40;;;12.10;99.90;;;;;;4211509;28;20646;-57
2024/04/03 09:31:38;;;;;;;0.20;0.20;;;12.10;99.90;;;;;;4208011;28;20185;-57
2024/04/03 09:33:42;;;;;;;0.10;0.10;;;12.20;99.90;;;;;;4211644;28;20279;-57
2024/04/03 09:35:43;;;;;;;0.20;0.20;;;12.20;99.90;;;;;;4210985;28;20212;-56
2024/04/03 09:37:44;;;;;;;0.40;0.30;;;12.20;99.90;;;;;;4214845;28;20192;-57
2024/04/03 09:39:44;;;;;;;0.50;0.40;;;12.20;99.90;;;;;;4214661;28;20264;-56
2024/04/03 09:41:45;;;;;;;0.10;0.10;;;12.20;99.90;;;;;;4213411;28;20185;-57
2024/04/03 09:43:50;;;;;;;0.20;0.20;;;12.20;99.90;;;;;;4214416;28;20181;-57
2024/04/03 09:45:52;;;;;;;0.70;0.40;;;12.20;99.90;;;;;;4214462;28;20185;-57
2024/04/03 09:47:58;;;;;;;0.30;0.30;;;12.30;99.90;;;;;;4214423;28;20184;-56
2024/04/03 09:50:00;;;;;;;0.33;0.33;;;12.30;99.90;;;;;;4213696;28;20219;-57
2024/04/03 09:52:02;;;;;;;0.30;0.30;;;12.30;99.90;;;;;;4214768;28;20189;-57
2024/04/03 09:54:03;;;;;;;0.43;0.30;;;12.30;99.90;;;;;;4214486;28;20533;-57
2024/04/03 09:56:04;;;;;;;0.63;0.40;;;12.30;99.90;;;;;;4214288;28;20180;-57
2024/04/03 09:58:13;;;;;;;0.30;0.30;;;12.30;99.90;;;;;;4214809;28;20203;-57
2024/04/03 10:00:13;;;;;;;0.50;0.47;;;12.30;99.90;;;;;;4213370;28;20725;-57
2024/04/03 10:02:14;;;;;;;0.83;0.30;;;12.30;99.90;;;;;;4212974;28;20191;-57
2024/04/03 10:04:15;;;;;;;0.37;0.20;;;12.40;99.90;;;;;;4213900;28;20184;-57
2024/04/03 10:06:16;;;;;;;1.23;0.13;;;12.40;99.90;;;;;;4213936;28;20180;-56
2024/04/03 10:08:18;;;;;;;0.30;0.30;;;12.40;99.90;;;;;;4214524;28;20196;-57
2024/04/03 10:10:19;;;;;;;0.23;0.10;;;12.40;99.90;;;;;;4206598;28;20205;-57
2024/04/03 10:12:22;;;;;;;0.23;0.23;;;12.30;99.90;;;;;;4212751;28;20268;-57
2024/04/03 10:14:32;;;;;;;0.20;0.20;;;12.30;99.90;;;;;;4213938;28;20232;-56
2024/04/03 10:16:33;;;;;;;0.20;0.20;;;12.30;99.90;;;;;;4214083;28;20236;-57
2024/04/03 10:18:38;;;;;;;0.20;0.20;;;12.30;99.90;;;;;;4214367;28;20447;-56
2024/04/03 10:20:39;;;;;;;0.20;0.20;;;12.20;99.90;;;;;;4213414;28;20295;-57
2024/04/03 10:22:41;;;;;;;0.33;0.20;;;12.20;99.90;;;;;;4214269;28;20185;-56
2024/04/03 10:24:45;;;;;;;0.20;0.20;;;12.20;99.90;;;;;;4214031;28;20678;-57
2024/04/03 10:26:46;;;;;;;0.20;0.20;;;12.20;99.90;;;;;;4213682;28;20176;-57
2024/04/03 10:28:47;;;;;;;0.30;0.30;;;12.30;99.90;;;;;;4213706;28;20740;-57
2024/04/03 10:30:57;;;;;;;0.30;0.20;;;12.30;99.90;;;;;;4213107;28;20188;-57
2024/04/03 10:32:58;;;;;;;0.40;0.30;;;12.40;99.90;;;;;;4213660;28;20249;-57
2024/04/03 10:34:58;;;;;;;0.50;0.30;;;12.40;99.90;;;;;;4213287;28;20448;-57
2024/04/03 10:36:59;;;;;;;0.20;0.20;;;12.40;99.90;;;;;;4213630;28;20177;-57